Terminal Aerodrome Forecast
Issued by NWS

Home | Current Version | Previous Version | Text Only | Print | Product List | Glossary On
Versions: 1 2 3 4 5 6 7 8 9 10 11 12 13 14 15 16 17 18
000
FTUS43 KSGF 250500
TAFJLN
TAF
KJLN 250525Z 2506/2606 18010KT P6SM SKC
     FM251400 17016KT P6SM SKC WS016/21050KT
     FM251700 19023G36KT P6SM FEW250
     FM252300 18019G27KT P6SM SCT250 WS020/20050KT=

USA.gov is the U.S. government's official web portal to all federal, state and local government web resources and services.